ADDS METAR Data INFO
IDs: Format: Raw Decoded Include TAF

Data at: 0730 UTC 18 Oct 2017

K0A9 180715Z AUTO 06004KT 10SM CLR 07/04 A3031 RMK A01
K0A9 180655Z AUTO 05004KT 10SM CLR 07/05 A3032 RMK A01
K0A9 180635Z AUTO 06004KT 10SM CLR 07/05 A3032 RMK A01
K0A9 180615Z AUTO 05004KT 10SM CLR 06/05 A3033 RMK A01
K0A9 180555Z AUTO 00000KT 10SM CLR 06/04 A3033 RMK A01
K0A9 180535Z AUTO 06003KT 10SM CLR 08/05 A3033 RMK A01
K0A9 180515Z AUTO 00000KT 10SM CLR 08/05 A3032 RMK A01
K0A9 180455Z AUTO 05003KT 10SM CLR 08/05 A3032 RMK A01
K0A9 180435Z AUTO 00000KT 10SM CLR 08/05 A3032 RMK A01
K0A9 180415Z AUTO 04004KT 10SM CLR 08/05 A3032 RMK A01
K0A9 180355Z AUTO 00000KT 10SM CLR 08/05 A3033 RMK A01
K0A9 180335Z AUTO 00000KT 10SM CLR 08/05 A3033 RMK A01
K0A9 180315Z AUTO 00000KT 10SM CLR 07/05 A3033 RMK A01
K0A9 180255Z AUTO 00000KT 10SM CLR 08/05 A3033 RMK A01
K0A9 180235Z AUTO 00000KT 10SM CLR 06/05 A3033 RMK A01
K0A9 180215Z AUTO 00000KT 10SM CLR 07/05 A3032 RMK A01
K0A9 180155Z AUTO 00000KT 10SM CLR 08/05 A3032 RMK A01
K0A9 180135Z AUTO 00000KT 10SM CLR 08/05 A3032 RMK A01
K0A9 180115Z AUTO VRB03KT 10SM CLR 08/05 A3031 RMK A01
K0A9 180055Z AUTO 00000KT 10SM CLR 08/05 A3031 RMK A01
K0A9 180035Z AUTO 00000KT 10SM CLR 08/05 A3031 RMK A01
K0A9 180015Z AUTO 00000KT 10SM CLR 08/06 A3031 RMK A01
K0A9 172355Z AUTO 00000KT 10SM CLR 09/06 A3030 RMK A01
K0A9 172335Z AUTO 00000KT 10SM CLR 10/06 A3029 RMK A01
K0A9 172315Z AUTO 00000KT 10SM CLR 11/06 A3028 RMK A01
K0A9 172255Z AUTO 00000KT 10SM CLR 12/06 A3027 RMK A01
K0A9 172235Z AUTO 00000KT 10SM CLR 13/07 A3027 RMK A01
K0A9 172215Z AUTO 00000KT 10SM CLR 16/06 A3026 RMK A01
K0A9 172155Z AUTO 28004KT 10SM CLR 18/04 A3026 RMK A01
K0A9 172135Z AUTO 26006KT 10SM CLR 18/04 A3027 RMK A01
K0A9 172115Z AUTO 28005KT 10SM CLR 19/04 A3026 RMK A01
K0A9 172055Z AUTO 25005KT 10SM CLR 19/03 A3027 RMK A01
K0A9 172035Z AUTO 29006KT 10SM CLR 19/04 A3027 RMK A01
K0A9 172015Z AUTO 27005KT 10SM CLR 18/04 A3027 RMK A01
K0A9 171955Z AUTO 29004KT 10SM CLR 19/04 A3027 RMK A01
K0A9 171935Z AUTO VRB05KT 10SM CLR 18/04 A3028 RMK A01
K0A9 171915Z AUTO 00000KT 10SM CLR 18/04 A3028 RMK A01
K0A9 171855Z AUTO 00000KT 10SM CLR 18/01 A3029 RMK A01
K0A9 171835Z AUTO 30004KT 10SM CLR 18/04 A3030 RMK A01
K0A9 171815Z AUTO 00000KT 10SM CLR 17/01 A3031 RMK A01
K0A9 171755Z AUTO VRB04KT 10SM CLR 16/04 A3032 RMK A01
K0A9 171735Z AUTO 21006KT 10SM CLR 16/06 A3034 RMK A01
K0A9 171715Z AUTO 00000KT 10SM CLR 16/04 A3035 RMK A01
K0A9 171655Z AUTO VRB03KT 10SM CLR 15/04 A3035 RMK A01
K0A9 171635Z AUTO 00000KT 10SM CLR 15/04 A3036 RMK A01
K0A9 171615Z AUTO 00000KT 10SM CLR 14/03 A3037 RMK A01
K0A9 171555Z AUTO 00000KT 10SM CLR 13/03 A3037 RMK A01
K0A9 171535Z AUTO 00000KT 10SM CLR 12/03 A3038 RMK A01
K0A9 171515Z AUTO 00000KT 10SM CLR 12/04 A3038 RMK A01
K0A9 171455Z AUTO 00000KT 10SM CLR 11/05 A3039 RMK A01
K0A9 171435Z AUTO 00000KT 10SM CLR 10/05 A3039 RMK A01
K0A9 171415Z AUTO 00000KT 10SM CLR 09/05 A3039 RMK A01
K0A9 171355Z AUTO 00000KT 10SM CLR 09/05 A3039 RMK A01
K0A9 171335Z AUTO 00000KT 10SM CLR 08/05 A3039 RMK A01
K0A9 171315Z AUTO 08004KT 10SM CLR 07/05 A3039 RMK A01
K0A9 171255Z AUTO 00000KT 10SM CLR 06/04 A3039 RMK A01
K0A9 171235Z AUTO 00000KT 10SM CLR 05/04 A3038 RMK A01
K0A9 171215Z AUTO 00000KT 10SM CLR 04/03 A3037 RMK A01
K0A9 171155Z AUTO 00000KT 10SM CLR 03/03 A3037 RMK A01
K0A9 171135Z AUTO 00000KT 10SM CLR 03/03 A3036 RMK A01
K0A9 171115Z AUTO 00000KT 10SM CLR 03/02 A3036 RMK A01
K0A9 171055Z AUTO 00000KT 10SM CLR 02/02 A3035 RMK A01
K0A9 171035Z AUTO 00000KT 10SM CLR 03/02 A3035 RMK A01
K0A9 171015Z AUTO 00000KT 10SM CLR 02/02 A3035 RMK A01
K0A9 170955Z AUTO 00000KT 10SM CLR 03/03 A3035 RMK A01
K0A9 170935Z AUTO 00000KT 10SM CLR 03/03 A3034 RMK A01
K0A9 170915Z AUTO 00000KT 10SM CLR 03/02 A3034 RMK A01
K0A9 170855Z AUTO 00000KT 10SM CLR 03/02 A3033 RMK A01
K0A9 170835Z AUTO 00000KT 10SM CLR 03/03 A3032 RMK A01
K0A9 170815Z AUTO 00000KT 10SM CLR 03/03 A3031 RMK A01
K0A9 170755Z AUTO 00000KT 10SM CLR 03/03 A3031 RMK A01
K0A9 170735Z AUTO 00000KT 10SM CLR 03/03 A3031 RMK A01
K0A9 170715Z AUTO 00000KT 10SM CLR 04/03 A3031 RMK A01
K0A9 170655Z AUTO 00000KT 10SM CLR 04/03 A3031 RMK A01
K0A9 170635Z AUTO 00000KT 10SM CLR 04/03 A3031 RMK A01
K0A9 170615Z AUTO 00000KT 10SM CLR 04/04 A3031 RMK A01
K0A9 170555Z AUTO 00000KT 10SM CLR 04/04 A3031 RMK A01
K0A9 170535Z AUTO 00000KT 10SM CLR 04/03 A3032 RMK A01
K0A9 170515Z AUTO 00000KT 10SM CLR 05/04 A3032 RMK A01
K0A9 170455Z AUTO 00000KT 10SM CLR 05/04 A3032 RMK A01
K0A9 170435Z AUTO 00000KT 10SM CLR 05/04 A3032 RMK A01
K0A9 170415Z AUTO 00000KT 10SM CLR 05/04 A3032 RMK A01
K0A9 170355Z AUTO 00000KT 10SM CLR 05/04 A3032 RMK A01
K0A9 170335Z AUTO 05003KT 10SM CLR 05/04 A3032 RMK A01
K0A9 170315Z AUTO 00000KT 10SM CLR 06/04 A3032 RMK A01
K0A9 170255Z AUTO 00000KT 10SM CLR 05/04 A3032 RMK A01
K0A9 170235Z AUTO 00000KT 10SM CLR 06/04 A3032 RMK A01
K0A9 170215Z AUTO 00000KT 10SM CLR 06/05 A3031 RMK A01
K0A9 170155Z AUTO 00000KT 10SM CLR 06/05 A3030 RMK A01
K0A9 170135Z AUTO 00000KT 10SM CLR 07/05 A3029 RMK A01
K0A9 170115Z AUTO 00000KT 10SM CLR 07/05 A3028 RMK A01
K0A9 170055Z AUTO 00000KT 10SM CLR 07/05 A3027 RMK A01
K0A9 170035Z AUTO 00000KT 10SM SCT050 08/05 A3027 RMK A01
K0A9 170015Z AUTO 00000KT 10SM SCT050 08/05 A3026 RMK A01
K0A9 162355Z AUTO 00000KT 10SM CLR 08/05 A3026 RMK A01
K0A9 162335Z AUTO 00000KT 10SM CLR 09/05 A3026 RMK A01
K0A9 162315Z AUTO 31005KT 10SM CLR 11/05 A3025 RMK A01
K0A9 162255Z AUTO VRB04G11KT 10SM CLR 13/03 A3024 RMK A01
K0A9 162235Z AUTO 00000KT 10SM CLR 13/03 A3023 RMK A01
K0A9 162215Z AUTO VRB04KT 10SM CLR 14/03 A3022 RMK A01
K0A9 162155Z AUTO 35003KT 10SM CLR 15/03 A3022 RMK A01
K0A9 162135Z AUTO 00000G10KT 10SM CLR 15/02 A3021 RMK A01
K0A9 162115Z AUTO VRB05KT 10SM FEW050 15/03 A3021 RMK A01
K0A9 162055Z AUTO VRB05G14KT 10SM FEW050 15/03 A3021 RMK A01
K0A9 162035Z AUTO 31008G15KT 270V330 10SM FEW045 15/04 A3021 RMK A01
K0A9 162015Z AUTO 03009KT 10SM BKN044 BKN055 15/05 A3022 RMK A01
K0A9 161955Z AUTO 09007G13KT 10SM OVC045 15/05 A3022 RMK A01
K0A9 161935Z AUTO VRB04G16KT 10SM BKN045 16/06 A3022 RMK A01